Corcovado — 9HA3971 — position and weather

sailwx.info

Track history (hours):
 
Tides and Currents Weather Stations Pressure Air Temp Water Temp Dewpoint Dewpoint Depression Visibility Wind Speed Wind Dir Waves Ship Positions

Corcovado

Last reported at 2017-Sep-21 17:55 UTC. Time now 2017-Sep-22 02:53 UTC.
Position N 36°23' W 002°36'.

Length 207 m; draft 6.9 m.

Type: Cargo ship. MMSI: 256634000.

Date/timePositionNaut miles runAvg speedWind from/ knotsBaromVisibWave heightAir tempDewpointWater temp
2017-Sep-21 17:55N 36°23' W 002°36'816.2
2017-Sep-21 17:28N 36°25' W 002°27'1915.6
2017-Sep-21 16:16N 36°31' W 002°05'515.8
2017-Sep-21 15:57N 36°34' W 002°00'715.6
2017-Sep-21 15:30N 36°38' W 001°53'1215.7
2017-Sep-21 14:46N 36°46' W 001°42'516.8
2017-Sep-21 14:30N 36°48' W 001°38'5216.6
2017-Sep-21 11:22N 37°23' W 000°49'716.6
2017-Sep-21 10:58N 37°27' W 000°42'916.6
2017-Sep-21 10:26N 37°33' W 000°34'716.4
2017-Sep-21 10:00N 37°39' W 000°30'1116.3
2017-Sep-21 09:18N 37°49' W 000°23'816.5
2017-Sep-21 08:49N 37°56' W 000°18'516.4
2017-Sep-21 08:30N 38°00' W 000°14'8215.6
2017-Sep-21 03:15N 39°01' E 000°56'415.5
2017-Sep-21 02:59N 39°03' E 001°01'815.8
2017-Sep-21 02:30N 39°08' E 001°09'2215.6
2017-Sep-21 01:06N 39°21' E 001°31'215.5
2017-Sep-21 00:59N 39°22' E 001°33'915.6
2017-Sep-21 00:26N 39°27' E 001°42'815.9
2017-Sep-20 23:55N 39°32' E 001°51'1016.0
2017-Sep-20 23:19N 39°37' E 002°01'915.7
2017-Sep-20 22:44N 39°42' E 002°11'415.5
2017-Sep-20 22:29N 39°44' E 002°15'815.9
2017-Sep-20 22:00N 39°49' E 002°23'815.9
2017-Sep-20 21:30N 39°53' E 002°32'815.5
2017-Sep-20 21:00N 39°58' E 002°39'816.2
2017-Sep-20 20:30N 40°06' E 002°43'815.8
2017-Sep-20 20:00N 40°11' E 002°51'816.1
2017-Sep-20 19:30N 40°16' E 002°59'816.6
2017-Sep-20 19:00N 40°22' E 003°07'916.6
2017-Sep-20 18:28N 40°27' E 003°16'24414.6
2017-Sep-20 01:48N 43°02' E 007°29'516.2
2017-Sep-20 01:30N 43°05' E 007°34'816.1
2017-Sep-20 01:00N 43°09' E 007°43'816.2
2017-Sep-20 00:30N 43°14' E 007°52'916.0
2017-Sep-19 23:57N 43°19' E 008°02'815.8
2017-Sep-19 23:26N 43°26' E 008°09'1115.7
2017-Sep-19 22:42N 43°35' E 008°19'515.7
2017-Sep-19 22:22N 43°39' E 008°23'615.9
2017-Sep-19 22:00N 43°43' E 008°28'815.8
2017-Sep-19 21:30N 43°50' E 008°34'816.0
2017-Sep-19 21:00N 43°55' E 008°43'815.7
2017-Sep-19 20:30N 44°01' E 008°50'815.8
2017-Sep-19 20:00N 44°08' E 008°55'816.5
2017-Sep-19 19:30N 44°16' E 008°58'611.8
2017-Sep-19 19:00N 44°22' E 008°57'3 6.2
2017-Sep-19 18:30N 44°24' E 008°54'0 0.1
2017-Sep-19 17:58N 44°24' E 008°54'0 0.0
2017-Sep-19 17:28N 44°24' E 008°54'0 0.0
2017-Sep-19 16:58N 44°24' E 008°54'0 0.0
2017-Sep-19 16:28N 44°24' E 008°54'0 0.0
2017-Sep-19 15:58N 44°24' E 008°54'0 0.0
2017-Sep-19 15:28N 44°24' E 008°54'0 0.0
2017-Sep-19 14:58N 44°24' E 008°54'0 0.0
2017-Sep-19 14:28N 44°24' E 008°54'0 0.0
2017-Sep-19 14:00N 44°24' E 008°54'0 0.0
2017-Sep-19 13:30N 44°24' E 008°54'0 0.0
2017-Sep-19 13:00N 44°24' E 008°54'0 0.0
2017-Sep-19 12:30N 44°24' E 008°54'0 0.0
2017-Sep-19 12:00N 44°24' E 008°54'0 0.0
2017-Sep-19 11:30N 44°24' E 008°54'2 3.1
2017-Sep-19 11:00N 44°24' E 008°56'4 7.1
2017-Sep-19 10:30N 44°21' E 008°59'2 5.0
2017-Sep-19 10:00N 44°18' E 008°59'0 0.3
2017-Sep-19 09:30N 44°18' E 008°59'2 3.2
2017-Sep-19 09:00N 44°16' E 008°59'4 8.4
2017-Sep-19 08:30N 44°13' E 008°57'4 8.5
2017-Sep-19 08:00N 44°09' E 008°54'4 8.6
2017-Sep-19 07:30N 44°05' E 008°51'510.8
2017-Sep-19 07:00N 44°00' E 008°47'612.9
2017-Sep-19 06:30N 43°55' E 008°43'713.6
2017-Sep-19 06:01N 43°50' E 008°36'815.0
2017-Sep-19 05:30N 43°45' E 008°29'815.1
2017-Sep-19 05:00N 43°39' E 008°22'27214.6
2017-Sep-18 10:24N 41°01' E 003°22'713.2
2017-Sep-18 09:54N 40°57' E 003°15'512.9
2017-Sep-18 09:29N 40°54' E 003°09'613.4
2017-Sep-18 09:00N 40°50' E 003°02'713.6
2017-Sep-18 08:30N 40°47' E 002°55'713.5
2017-Sep-18 08:00N 40°43' E 002°47'714.2
2017-Sep-18 07:30N 40°39' E 002°40'714.3
2017-Sep-18 07:00N 40°35' E 002°32'714.3
2017-Sep-18 06:30N 40°31' E 002°24'714.7
2017-Sep-18 06:00N 40°27' E 002°16'715.0
2017-Sep-18 05:30N 40°23' E 002°08'815.1
2017-Sep-18 05:00N 40°19' E 001°60'815.0
2017-Sep-18 04:30N 40°14' E 001°52'714.9
2017-Sep-18 04:00N 40°10' E 001°44'714.7
2017-Sep-18 03:30N 40°06' E 001°36'714.5
2017-Sep-18 03:00N 40°02' E 001°28'714.1
2017-Sep-18 02:30N 39°58' E 001°20'714.1
2017-Sep-18 01:59N 39°54' E 001°12'150 6.1
2017-Sep-17 01:21N 37°43' W 000°20'412.8
2017-Sep-17 01:00N 37°39' W 000°24'714.0
2017-Sep-17 00:31N 37°34' W 000°29'713.7
2017-Sep-17 00:00N 37°30' W 000°36'713.7
2017-Sep-16 23:30N 37°25' W 000°43'713.7
2017-Sep-16 23:00N 37°21' W 000°49'713.7
2017-Sep-16 22:30N 37°16' W 000°55'22013.4
2017-Sep-16 06:05N 36°01' W 005°13'219.7
2017-Sep-16 06:00N 36°01' W 005°15'1019.9
2017-Sep-16 05:30N 35°58' W 005°27'19215.6
2017-Sep-15 17:12N 33°50' W 008°21'2014.1
2017-Sep-15 15:50N 33°36' W 008°38'3313.9
2017-Sep-15 13:29N 33°13' W 009°05'714.0
2017-Sep-15 13:00N 33°08' W 009°11'814.1
2017-Sep-15 12:24N 33°02' W 009°18'613.9
2017-Sep-15 11:59N 32°58' W 009°22'713.9
2017-Sep-15 11:30N 32°53' W 009°28'4314.6
2017-Sep-15 08:34N 32°23' W 010°05'313.9
2017-Sep-15 08:23N 32°22' W 010°07'711.6
2017-Sep-15 07:46N 32°16' W 010°13'1514.7
2017-Sep-15 06:45N 32°06' W 010°26'1914.5
2017-Sep-15 05:26N 31°49' W 010°37'614.4
2017-Sep-15 05:00N 31°44' W 010°41'714.2
2017-Sep-15 04:30N 31°38' W 010°46'1113.9
2017-Sep-15 03:44N 31°29' W 010°53'313.8
2017-Sep-15 03:30N 31°27' W 010°55'713.6
2017-Sep-15 03:00N 31°21' W 010°59'713.4
2017-Sep-15 02:30N 31°15' W 011°03'713.2
2017-Sep-15 02:00N 31°10' W 011°08'713.6
2017-Sep-15 01:30N 31°04' W 011°12'714.0
2017-Sep-15 01:00N 30°58' W 011°16'714.3
2017-Sep-15 00:29N 30°51' W 011°19'714.7
2017-Sep-14 23:59N 30°45' W 011°23'914.4
2017-Sep-14 23:21N 30°37' W 011°28'1014.1
2017-Sep-14 22:38N 30°29' W 011°36'214.1
2017-Sep-14 22:30N 30°27' W 011°37'714.1
2017-Sep-14 21:59N 30°21' W 011°41'1213.8
2017-Sep-14 21:07N 30°11' W 011°49'313.7
2017-Sep-14 20:55N 30°09' W 011°51'4713.5
2017-Sep-14 17:27N 29°30' W 012°21'714.2
2017-Sep-14 16:58N 29°24' W 012°25'714.3
2017-Sep-14 16:27N 29°18' W 012°30'1814.4
2017-Sep-14 15:14N 29°03' W 012°41'614.5
2017-Sep-14 14:49N 28°58' W 012°45'614.2
2017-Sep-14 14:23N 28°53' W 012°48'714.0
2017-Sep-14 13:51N 28°47' W 012°52'514.0
2017-Sep-14 13:30N 28°42' W 012°55'1013.9
2017-Sep-14 12:49N 28°34' W 013°00'413.7
2017-Sep-14 12:30N 28°30' W 013°03'713.9
2017-Sep-14 11:59N 28°24' W 013°08'713.8
2017-Sep-14 11:30N 28°19' W 013°13'714.4
2017-Sep-14 11:00N 28°13' W 013°17'714.3
2017-Sep-14 10:30N 28°07' W 013°21'714.1
2017-Sep-14 10:00N 28°02' W 013°27'814.3
2017-Sep-14 09:29N 27°56' W 013°32'714.4
2017-Sep-14 09:00N 27°51' W 013°37'714.3
2017-Sep-14 08:30N 27°45' W 013°42'714.2
2017-Sep-14 08:00N 27°40' W 013°47'714.2
2017-Sep-14 07:29N 27°35' W 013°53'1314.3
2017-Sep-14 06:35N 27°25' W 014°03'314.5
2017-Sep-14 06:23N 27°23' W 014°05'614.7
2017-Sep-14 05:56N 27°18' W 014°10'614.6
2017-Sep-14 05:30N 27°14' W 014°15'714.7
2017-Sep-14 05:00N 27°08' W 014°21'814.5
2017-Sep-14 04:29N 27°02' W 014°26'714.2
2017-Sep-14 04:00N 26°57' W 014°31'2513.9
2017-Sep-14 02:12N 26°38' W 014°49'413.5
2017-Sep-14 01:55N 26°35' W 014°52'613.5
2017-Sep-14 01:28N 26°31' W 014°56'713.5
2017-Sep-14 00:57N 26°26' W 015°02'913.5
2017-Sep-14 00:15N 26°19' W 015°09'513.6
2017-Sep-13 23:55N 26°15' W 015°12'1013.6
2017-Sep-13 23:10N 26°08' W 015°20'2814.2
2017-Sep-13 21:11N 25°47' W 015°41'  
Track history (hours):
 
Tides and Currents Weather Stations Pressure Air Temp Water Temp Dewpoint Dewpoint Depression Visibility Wind Speed Wind Dir Waves Ship Positions

Corcovado

Last reported at 2017-Sep-21 17:55 UTC. Time now 2017-Sep-22 02:53 UTC.
Position N 36°23' W 002°36'.

Length 207 m; draft 6.9 m.

Type: Cargo ship. MMSI: 256634000.

Date/timePositionNaut miles runAvg speedWind from/ knotsBaromVisibWave heightAir tempDewpointWater temp
2017-Sep-21 17:55N 36°23' W 002°36'816.2
2017-Sep-21 17:28N 36°25' W 002°27'1915.6
2017-Sep-21 16:16N 36°31' W 002°05'515.8
2017-Sep-21 15:57N 36°34' W 002°00'715.6
2017-Sep-21 15:30N 36°38' W 001°53'1215.7
2017-Sep-21 14:46N 36°46' W 001°42'516.8
2017-Sep-21 14:30N 36°48' W 001°38'5216.6
2017-Sep-21 11:22N 37°23' W 000°49'716.6
2017-Sep-21 10:58N 37°27' W 000°42'916.6
2017-Sep-21 10:26N 37°33' W 000°34'716.4
2017-Sep-21 10:00N 37°39' W 000°30'1116.3
2017-Sep-21 09:18N 37°49' W 000°23'816.5
2017-Sep-21 08:49N 37°56' W 000°18'516.4
2017-Sep-21 08:30N 38°00' W 000°14'8215.6
2017-Sep-21 03:15N 39°01' E 000°56'415.5
2017-Sep-21 02:59N 39°03' E 001°01'815.8
2017-Sep-21 02:30N 39°08' E 001°09'2215.6
2017-Sep-21 01:06N 39°21' E 001°31'215.5
2017-Sep-21 00:59N 39°22' E 001°33'915.6
2017-Sep-21 00:26N 39°27' E 001°42'815.9
2017-Sep-20 23:55N 39°32' E 001°51'1016.0
2017-Sep-20 23:19N 39°37' E 002°01'915.7
2017-Sep-20 22:44N 39°42' E 002°11'415.5
2017-Sep-20 22:29N 39°44' E 002°15'815.9
2017-Sep-20 22:00N 39°49' E 002°23'815.9
2017-Sep-20 21:30N 39°53' E 002°32'815.5
2017-Sep-20 21:00N 39°58' E 002°39'816.2
2017-Sep-20 20:30N 40°06' E 002°43'815.8
2017-Sep-20 20:00N 40°11' E 002°51'816.1
2017-Sep-20 19:30N 40°16' E 002°59'816.6
2017-Sep-20 19:00N 40°22' E 003°07'916.6
2017-Sep-20 18:28N 40°27' E 003°16'24414.6
2017-Sep-20 01:48N 43°02' E 007°29'516.2
2017-Sep-20 01:30N 43°05' E 007°34'816.1
2017-Sep-20 01:00N 43°09' E 007°43'816.2
2017-Sep-20 00:30N 43°14' E 007°52'916.0
2017-Sep-19 23:57N 43°19' E 008°02'815.8
2017-Sep-19 23:26N 43°26' E 008°09'1115.7
2017-Sep-19 22:42N 43°35' E 008°19'515.7
2017-Sep-19 22:22N 43°39' E 008°23'615.9
2017-Sep-19 22:00N 43°43' E 008°28'815.8
2017-Sep-19 21:30N 43°50' E 008°34'816.0
2017-Sep-19 21:00N 43°55' E 008°43'815.7
2017-Sep-19 20:30N 44°01' E 008°50'815.8
2017-Sep-19 20:00N 44°08' E 008°55'816.5
2017-Sep-19 19:30N 44°16' E 008°58'611.8
2017-Sep-19 19:00N 44°22' E 008°57'3 6.2
2017-Sep-19 18:30N 44°24' E 008°54'0 0.1
2017-Sep-19 17:58N 44°24' E 008°54'0 0.0
2017-Sep-19 17:28N 44°24' E 008°54'0 0.0
2017-Sep-19 16:58N 44°24' E 008°54'0 0.0
2017-Sep-19 16:28N 44°24' E 008°54'0 0.0
2017-Sep-19 15:58N 44°24' E 008°54'0 0.0
2017-Sep-19 15:28N 44°24' E 008°54'0 0.0
2017-Sep-19 14:58N 44°24' E 008°54'0 0.0
2017-Sep-19 14:28N 44°24' E 008°54'0 0.0
2017-Sep-19 14:00N 44°24' E 008°54'0 0.0
2017-Sep-19 13:30N 44°24' E 008°54'0 0.0
2017-Sep-19 13:00N 44°24' E 008°54'0 0.0
2017-Sep-19 12:30N 44°24' E 008°54'0 0.0
2017-Sep-19 12:00N 44°24' E 008°54'0 0.0
2017-Sep-19 11:30N 44°24' E 008°54'2 3.1
2017-Sep-19 11:00N 44°24' E 008°56'4 7.1
2017-Sep-19 10:30N 44°21' E 008°59'2 5.0
2017-Sep-19 10:00N 44°18' E 008°59'0 0.3
2017-Sep-19 09:30N 44°18' E 008°59'2 3.2
2017-Sep-19 09:00N 44°16' E 008°59'4 8.4
2017-Sep-19 08:30N 44°13' E 008°57'4 8.5
2017-Sep-19 08:00N 44°09' E 008°54'4 8.6
2017-Sep-19 07:30N 44°05' E 008°51'510.8
2017-Sep-19 07:00N 44°00' E 008°47'612.9
2017-Sep-19 06:30N 43°55' E 008°43'713.6
2017-Sep-19 06:01N 43°50' E 008°36'815.0
2017-Sep-19 05:30N 43°45' E 008°29'815.1
2017-Sep-19 05:00N 43°39' E 008°22'27214.6
2017-Sep-18 10:24N 41°01' E 003°22'713.2
2017-Sep-18 09:54N 40°57' E 003°15'512.9
2017-Sep-18 09:29N 40°54' E 003°09'613.4
2017-Sep-18 09:00N 40°50' E 003°02'713.6
2017-Sep-18 08:30N 40°47' E 002°55'713.5
2017-Sep-18 08:00N 40°43' E 002°47'714.2
2017-Sep-18 07:30N 40°39' E 002°40'714.3
2017-Sep-18 07:00N 40°35' E 002°32'714.3
2017-Sep-18 06:30N 40°31' E 002°24'714.7
2017-Sep-18 06:00N 40°27' E 002°16'715.0
2017-Sep-18 05:30N 40°23' E 002°08'815.1
2017-Sep-18 05:00N 40°19' E 001°60'815.0
2017-Sep-18 04:30N 40°14' E 001°52'714.9
2017-Sep-18 04:00N 40°10' E 001°44'714.7
2017-Sep-18 03:30N 40°06' E 001°36'714.5
2017-Sep-18 03:00N 40°02' E 001°28'714.1
2017-Sep-18 02:30N 39°58' E 001°20'714.1
2017-Sep-18 01:59N 39°54' E 001°12'150 6.1
2017-Sep-17 01:21N 37°43' W 000°20'412.8
2017-Sep-17 01:00N 37°39' W 000°24'714.0
2017-Sep-17 00:31N 37°34' W 000°29'713.7
2017-Sep-17 00:00N 37°30' W 000°36'713.7
2017-Sep-16 23:30N 37°25' W 000°43'713.7
2017-Sep-16 23:00N 37°21' W 000°49'713.7
2017-Sep-16 22:30N 37°16' W 000°55'22013.4
2017-Sep-16 06:05N 36°01' W 005°13'219.7
2017-Sep-16 06:00N 36°01' W 005°15'1019.9
2017-Sep-16 05:30N 35°58' W 005°27'19215.6
2017-Sep-15 17:12N 33°50' W 008°21'2014.1
2017-Sep-15 15:50N 33°36' W 008°38'3313.9
2017-Sep-15 13:29N 33°13' W 009°05'714.0
2017-Sep-15 13:00N 33°08' W 009°11'814.1
2017-Sep-15 12:24N 33°02' W 009°18'613.9
2017-Sep-15 11:59N 32°58' W 009°22'713.9
2017-Sep-15 11:30N 32°53' W 009°28'4314.6
2017-Sep-15 08:34N 32°23' W 010°05'313.9
2017-Sep-15 08:23N 32°22' W 010°07'711.6
2017-Sep-15 07:46N 32°16' W 010°13'1514.7
2017-Sep-15 06:45N 32°06' W 010°26'1914.5
2017-Sep-15 05:26N 31°49' W 010°37'614.4
2017-Sep-15 05:00N 31°44' W 010°41'714.2
2017-Sep-15 04:30N 31°38' W 010°46'1113.9
2017-Sep-15 03:44N 31°29' W 010°53'313.8
2017-Sep-15 03:30N 31°27' W 010°55'713.6
2017-Sep-15 03:00N 31°21' W 010°59'713.4
2017-Sep-15 02:30N 31°15' W 011°03'713.2
2017-Sep-15 02:00N 31°10' W 011°08'713.6
2017-Sep-15 01:30N 31°04' W 011°12'714.0
2017-Sep-15 01:00N 30°58' W 011°16'714.3
2017-Sep-15 00:29N 30°51' W 011°19'714.7
2017-Sep-14 23:59N 30°45' W 011°23'914.4
2017-Sep-14 23:21N 30°37' W 011°28'1014.1
2017-Sep-14 22:38N 30°29' W 011°36'214.1
2017-Sep-14 22:30N 30°27' W 011°37'714.1
2017-Sep-14 21:59N 30°21' W 011°41'1213.8
2017-Sep-14 21:07N 30°11' W 011°49'313.7
2017-Sep-14 20:55N 30°09' W 011°51'4713.5
2017-Sep-14 17:27N 29°30' W 012°21'714.2
2017-Sep-14 16:58N 29°24' W 012°25'714.3
2017-Sep-14 16:27N 29°18' W 012°30'1814.4
2017-Sep-14 15:14N 29°03' W 012°41'614.5
2017-Sep-14 14:49N 28°58' W 012°45'614.2
2017-Sep-14 14:23N 28°53' W 012°48'714.0
2017-Sep-14 13:51N 28°47' W 012°52'514.0
2017-Sep-14 13:30N 28°42' W 012°55'1013.9
2017-Sep-14 12:49N 28°34' W 013°00'413.7
2017-Sep-14 12:30N 28°30' W 013°03'713.9
2017-Sep-14 11:59N 28°24' W 013°08'713.8
2017-Sep-14 11:30N 28°19' W 013°13'714.4
2017-Sep-14 11:00N 28°13' W 013°17'714.3
2017-Sep-14 10:30N 28°07' W 013°21'714.1
2017-Sep-14 10:00N 28°02' W 013°27'814.3
2017-Sep-14 09:29N 27°56' W 013°32'714.4
2017-Sep-14 09:00N 27°51' W 013°37'714.3
2017-Sep-14 08:30N 27°45' W 013°42'714.2
2017-Sep-14 08:00N 27°40' W 013°47'714.2
2017-Sep-14 07:29N 27°35' W 013°53'1314.3
2017-Sep-14 06:35N 27°25' W 014°03'314.5
2017-Sep-14 06:23N 27°23' W 014°05'614.7
2017-Sep-14 05:56N 27°18' W 014°10'614.6
2017-Sep-14 05:30N 27°14' W 014°15'714.7
2017-Sep-14 05:00N 27°08' W 014°21'814.5
2017-Sep-14 04:29N 27°02' W 014°26'714.2
2017-Sep-14 04:00N 26°57' W 014°31'2513.9
2017-Sep-14 02:12N 26°38' W 014°49'413.5
2017-Sep-14 01:55N 26°35' W 014°52'613.5
2017-Sep-14 01:28N 26°31' W 014°56'713.5
2017-Sep-14 00:57N 26°26' W 015°02'913.5
2017-Sep-14 00:15N 26°19' W 015°09'513.6
2017-Sep-13 23:55N 26°15' W 015°12'1013.6
2017-Sep-13 23:10N 26°08' W 015°20'2814.2
2017-Sep-13 21:11N 25°47' W 015°41'  

Dump ship's entire track history